sensor_id;sensor_type;location;lat;lon;timestamp;P1;durP1;ratioP1;P2;durP2;ratioP2
61473;SDS011;53694;49.784;30.150;2023-03-03T00:00:06;24.11;;;11.39;;
61473;SDS011;53694;49.784;30.150;2023-03-03T00:01:08;21.01;;;11.06;;
61473;SDS011;53694;49.784;30.150;2023-03-03T00:02:10;21.04;;;11.06;;
61473;SDS011;53694;49.784;30.150;2023-03-03T00:03:14;19.64;;;10.75;;
61473;SDS011;53694;49.784;30.150;2023-03-03T00:04:17;21.15;;;10.79;;
61473;SDS011;53694;49.784;30.150;2023-03-03T00:05:18;18.63;;;10.86;;
61473;SDS011;53694;49.784;30.150;2023-03-03T00:06:20;19.26;;;10.71;;
61473;SDS011;53694;49.784;30.150;2023-03-03T00:07:21;20.09;;;10.91;;
61473;SDS011;53694;49.784;30.150;2023-03-03T00:08:23;21.79;;;11.01;;
61473;SDS011;53694;49.784;30.150;2023-03-03T00:09:25;25.09;;;12.58;;
61473;SDS011;53694;49.784;30.150;2023-03-03T00:10:27;19.73;;;11.14;;
61473;SDS011;53694;49.784;30.150;2023-03-03T00:11:28;20.31;;;11.65;;
61473;SDS011;53694;49.784;30.150;2023-03-03T00:12:30;19.82;;;12.01;;
61473;SDS011;53694;49.784;30.150;2023-03-03T00:13:32;22.28;;;11.64;;
61473;SDS011;53694;49.784;30.150;2023-03-03T00:14:49;17.61;;;10.04;;
61473;SDS011;53694;49.784;30.150;2023-03-03T00:15:51;18.96;;;10.89;;
61473;SDS011;53694;49.784;30.150;2023-03-03T00:16:53;20.69;;;10.98;;
61473;SDS011;53694;49.784;30.150;2023-03-03T00:17:56;22.50;;;11.03;;
61473;SDS011;53694;49.784;30.150;2023-03-03T00:18:59;20.27;;;10.65;;
61473;SDS011;53694;49.784;30.150;2023-03-03T00:20:01;17.11;;;10.23;;
61473;SDS011;53694;49.784;30.150;2023-03-03T00:21:14;18.76;;;10.52;;
61473;SDS011;53694;49.784;30.150;2023-03-03T00:22:31;17.46;;;10.49;;
61473;SDS011;53694;49.784;30.150;2023-03-03T00:23:38;22.08;;;10.76;;
61473;SDS011;53694;49.784;30.150;2023-03-03T00:24:40;19.62;;;10.84;;
61473;SDS011;53694;49.784;30.150;2023-03-03T00:25:43;19.49;;;10.98;;
61473;SDS011;53694;49.784;30.150;2023-03-03T00:26:46;20.91;;;10.96;;
61473;SDS011;53694;49.784;30.150;2023-03-03T00:27:51;21.42;;;12.04;;
61473;SDS011;53694;49.784;30.150;2023-03-03T00:28:52;19.76;;;10.64;;
61473;SDS011;53694;49.784;30.150;2023-03-03T00:29:58;17.76;;;10.27;;
61473;SDS011;53694;49.784;30.150;2023-03-03T00:30:59;20.74;;;11.05;;
61473;SDS011;53694;49.784;30.150;2023-03-03T00:34:36;17.78;;;10.37;;
61473;SDS011;53694;49.784;30.150;2023-03-03T00:35:38;21.08;;;10.62;;
61473;SDS011;53694;49.784;30.150;2023-03-03T00:36:39;21.66;;;10.57;;
61473;SDS011;53694;49.784;30.150;2023-03-03T00:37:42;19.48;;;9.19;;
61473;SDS011;53694;49.784;30.150;2023-03-03T00:38:43;18.34;;;10.49;;
61473;SDS011;53694;49.784;30.150;2023-03-03T00:39:46;18.93;;;10.51;;
61473;SDS011;53694;49.784;30.150;2023-03-03T00:40:48;19.32;;;10.69;;
61473;SDS011;53694;49.784;30.150;2023-03-03T00:41:49;18.33;;;10.17;;
61473;SDS011;53694;49.784;30.150;2023-03-03T00:42:52;22.31;;;10.66;;
61473;SDS011;53694;49.784;30.150;2023-03-03T00:43:56;19.67;;;10.50;;
61473;SDS011;53694;49.784;30.150;2023-03-03T00:44:58;19.11;;;10.32;;
61473;SDS011;53694;49.784;30.150;2023-03-03T00:46:01;17.70;;;10.52;;
61473;SDS011;53694;49.784;30.150;2023-03-03T00:47:37;17.89;;;10.69;;
61473;SDS011;53694;49.784;30.150;2023-03-03T00:49:32;18.05;;;10.45;;
61473;SDS011;53694;49.784;30.150;2023-03-03T00:50:34;16.75;;;10.01;;
61473;SDS011;53694;49.784;30.150;2023-03-03T00:51:37;19.70;;;11.05;;
61473;SDS011;53694;49.784;30.150;2023-03-03T00:52:40;18.71;;;10.50;;
61473;SDS011;53694;49.784;30.150;2023-03-03T00:53:47;21.60;;;11.06;;
61473;SDS011;53694;49.784;30.150;2023-03-03T00:54:50;20.19;;;10.21;;
61473;SDS011;53694;49.784;30.150;2023-03-03T00:55:51;20.89;;;10.36;;
61473;SDS011;53694;49.784;30.150;2023-03-03T00:56:54;18.98;;;10.47;;
61473;SDS011;53694;49.784;30.150;2023-03-03T00:57:55;22.71;;;11.86;;
61473;SDS011;53694;49.784;30.150;2023-03-03T00:58:57;22.91;;;12.07;;
61473;SDS011;53694;49.784;30.150;2023-03-03T00:59:58;23.46;;;12.26;;
61473;SDS011;53694;49.784;30.150;2023-03-03T01:01:00;19.88;;;10.66;;
61473;SDS011;53694;49.784;30.150;2023-03-03T01:02:01;20.61;;;11.44;;
61473;SDS011;53694;49.784;30.150;2023-03-03T01:03:04;20.62;;;11.21;;
61473;SDS011;53694;49.784;30.150;2023-03-03T01:04:08;20.14;;;10.76;;
61473;SDS011;53694;49.784;30.150;2023-03-03T01:05:09;19.89;;;10.79;;
61473;SDS011;53694;49.784;30.150;2023-03-03T01:06:14;18.04;;;10.08;;
61473;SDS011;53694;49.784;30.150;2023-03-03T01:07:16;17.00;;;9.51;;
61473;SDS011;53694;49.784;30.150;2023-03-03T01:08:18;18.41;;;10.47;;
61473;SDS011;53694;49.784;30.150;2023-03-03T01:09:21;17.59;;;9.64;;
61473;SDS011;53694;49.784;30.150;2023-03-03T01:10:23;18.07;;;10.01;;
61473;SDS011;53694;49.784;30.150;2023-03-03T01:11:26;17.64;;;10.04;;
61473;SDS011;53694;49.784;30.150;2023-03-03T01:12:28;18.39;;;9.82;;
61473;SDS011;53694;49.784;30.150;2023-03-03T01:13:30;18.30;;;9.85;;
61473;SDS011;53694;49.784;30.150;2023-03-03T01:14:34;18.89;;;10.26;;
61473;SDS011;53694;49.784;30.150;2023-03-03T01:15:36;16.91;;;9.95;;
61473;SDS011;53694;49.784;30.150;2023-03-03T01:16:39;18.50;;;10.41;;
61473;SDS011;53694;49.784;30.150;2023-03-03T01:17:41;19.51;;;9.70;;
61473;SDS011;53694;49.784;30.150;2023-03-03T01:18:43;16.93;;;9.61;;
61473;SDS011;53694;49.784;30.150;2023-03-03T01:19:45;18.65;;;10.11;;
61473;SDS011;53694;49.784;30.150;2023-03-03T01:20:46;18.51;;;9.91;;
61473;SDS011;53694;49.784;30.150;2023-03-03T01:21:48;17.21;;;10.72;;
61473;SDS011;53694;49.784;30.150;2023-03-03T01:22:49;18.18;;;10.09;;
61473;SDS011;53694;49.784;30.150;2023-03-03T01:23:51;17.88;;;9.43;;
61473;SDS011;53694;49.784;30.150;2023-03-03T01:24:52;16.80;;;10.04;;
61473;SDS011;53694;49.784;30.150;2023-03-03T01:25:54;16.55;;;9.85;;
61473;SDS011;53694;49.784;30.150;2023-03-03T01:26:55;17.01;;;9.59;;
61473;SDS011;53694;49.784;30.150;2023-03-03T01:27:57;18.60;;;10.39;;
61473;SDS011;53694;49.784;30.150;2023-03-03T01:28:59;19.52;;;10.61;;
61473;SDS011;53694;49.784;30.150;2023-03-03T01:30:01;19.31;;;10.26;;
61473;SDS011;53694;49.784;30.150;2023-03-03T01:31:05;19.79;;;10.38;;
61473;SDS011;53694;49.784;30.150;2023-03-03T01:32:06;17.80;;;9.09;;
61473;SDS011;53694;49.784;30.150;2023-03-03T01:33:08;16.81;;;8.44;;
61473;SDS011;53694;49.784;30.150;2023-03-03T01:34:10;16.73;;;7.84;;
61473;SDS011;53694;49.784;30.150;2023-03-03T01:35:11;14.11;;;7.66;;
61473;SDS011;53694;49.784;30.150;2023-03-03T01:36:13;17.51;;;8.81;;
61473;SDS011;53694;49.784;30.150;2023-03-03T01:37:15;16.77;;;9.05;;
61473;SDS011;53694;49.784;30.150;2023-03-03T01:38:16;17.47;;;8.86;;
61473;SDS011;53694;49.784;30.150;2023-03-03T01:39:17;18.39;;;9.44;;
61473;SDS011;53694;49.784;30.150;2023-03-03T01:40:24;19.16;;;9.69;;
61473;SDS011;53694;49.784;30.150;2023-03-03T01:41:28;17.77;;;9.70;;
61473;SDS011;53694;49.784;30.150;2023-03-03T01:42:30;19.03;;;10.26;;
61473;SDS011;53694;49.784;30.150;2023-03-03T01:43:33;16.73;;;9.64;;
61473;SDS011;53694;49.784;30.150;2023-03-03T01:44:34;17.60;;;10.26;;
61473;SDS011;53694;49.784;30.150;2023-03-03T01:46:54;16.97;;;9.46;;
61473;SDS011;53694;49.784;30.150;2023-03-03T01:49:24;15.71;;;9.63;;
61473;SDS011;53694;49.784;30.150;2023-03-03T01:50:32;18.27;;;9.96;;
61473;SDS011;53694;49.784;30.150;2023-03-03T01:51:37;17.69;;;9.98;;
61473;SDS011;53694;49.784;30.150;2023-03-03T01:52:45;18.43;;;10.82;;
61473;SDS011;53694;49.784;30.150;2023-03-03T01:53:50;18.37;;;10.55;;
61473;SDS011;53694;49.784;30.150;2023-03-03T01:54:54;18.44;;;10.57;;
61473;SDS011;53694;49.784;30.150;2023-03-03T01:55:58;22.01;;;10.38;;
61473;SDS011;53694;49.784;30.150;2023-03-03T01:57:03;19.81;;;10.89;;
61473;SDS011;53694;49.784;30.150;2023-03-03T01:58:10;17.80;;;9.81;;
61473;SDS011;53694;49.784;30.150;2023-03-03T01:59:15;17.67;;;10.52;;
61473;SDS011;53694;49.784;30.150;2023-03-03T02:00:18;18.37;;;10.48;;
61473;SDS011;53694;49.784;30.150;2023-03-03T02:01:22;20.25;;;11.75;;
61473;SDS011;53694;49.784;30.150;2023-03-03T02:02:26;19.42;;;10.62;;
61473;SDS011;53694;49.784;30.150;2023-03-03T02:03:28;19.41;;;10.23;;
61473;SDS011;53694;49.784;30.150;2023-03-03T02:04:30;19.53;;;9.65;;
61473;SDS011;53694;49.784;30.150;2023-03-03T02:05:33;14.99;;;7.84;;
61473;SDS011;53694;49.784;30.150;2023-03-03T02:06:37;15.43;;;8.58;;
61473;SDS011;53694;49.784;30.150;2023-03-03T02:07:41;16.40;;;8.54;;
61473;SDS011;53694;49.784;30.150;2023-03-03T02:08:50;12.83;;;7.63;;
61473;SDS011;53694;49.784;30.150;2023-03-03T02:10:05;17.00;;;8.57;;
61473;SDS011;53694;49.784;30.150;2023-03-03T02:11:09;16.53;;;9.01;;
61473;SDS011;53694;49.784;30.150;2023-03-03T02:12:13;17.41;;;9.27;;
61473;SDS011;53694;49.784;30.150;2023-03-03T02:13:17;18.53;;;9.83;;
61473;SDS011;53694;49.784;30.150;2023-03-03T02:14:19;18.75;;;10.37;;
61473;SDS011;53694;49.784;30.150;2023-03-03T02:15:25;19.02;;;9.62;;
61473;SDS011;53694;49.784;30.150;2023-03-03T02:16:29;17.62;;;9.57;;
61473;SDS011;53694;49.784;30.150;2023-03-03T02:17:30;18.61;;;10.63;;
61473;SDS011;53694;49.784;30.150;2023-03-03T02:18:32;21.85;;;10.97;;
61473;SDS011;53694;49.784;30.150;2023-03-03T02:19:40;20.76;;;11.55;;
61473;SDS011;53694;49.784;30.150;2023-03-03T02:22:00;18.42;;;11.00;;
61473;SDS011;53694;49.784;30.150;2023-03-03T02:24:09;19.45;;;11.21;;
61473;SDS011;53694;49.784;30.150;2023-03-03T02:25:14;21.57;;;11.99;;
61473;SDS011;53694;49.784;30.150;2023-03-03T02:26:23;20.83;;;11.66;;
61473;SDS011;53694;49.784;30.150;2023-03-03T02:27:23;21.41;;;11.49;;
61473;SDS011;53694;49.784;30.150;2023-03-03T02:28:28;20.69;;;11.99;;
61473;SDS011;53694;49.784;30.150;2023-03-03T02:29:31;20.03;;;11.45;;
61473;SDS011;53694;49.784;30.150;2023-03-03T02:30:36;21.92;;;10.83;;
61473;SDS011;53694;49.784;30.150;2023-03-03T02:31:38;20.52;;;11.51;;
61473;SDS011;53694;49.784;30.150;2023-03-03T02:32:40;22.21;;;12.11;;
61473;SDS011;53694;49.784;30.150;2023-03-03T02:33:43;20.58;;;10.82;;
61473;SDS011;53694;49.784;30.150;2023-03-03T02:34:46;18.76;;;9.52;;
61473;SDS011;53694;49.784;30.150;2023-03-03T02:35:49;20.01;;;9.29;;
61473;SDS011;53694;49.784;30.150;2023-03-03T02:36:52;20.29;;;8.99;;
61473;SDS011;53694;49.784;30.150;2023-03-03T02:37:55;16.44;;;8.57;;
61473;SDS011;53694;49.784;30.150;2023-03-03T02:40:13;15.84;;;8.99;;
61473;SDS011;53694;49.784;30.150;2023-03-03T02:42:26;18.41;;;10.06;;
61473;SDS011;53694;49.784;30.150;2023-03-03T02:43:35;20.65;;;10.71;;
61473;SDS011;53694;49.784;30.150;2023-03-03T02:44:34;20.33;;;10.78;;
61473;SDS011;53694;49.784;30.150;2023-03-03T02:45:43;21.60;;;11.03;;
61473;SDS011;53694;49.784;30.150;2023-03-03T02:46:46;20.06;;;11.73;;
61473;SDS011;53694;49.784;30.150;2023-03-03T02:47:49;21.49;;;11.58;;
61473;SDS011;53694;49.784;30.150;2023-03-03T02:48:51;22.51;;;12.18;;
61473;SDS011;53694;49.784;30.150;2023-03-03T02:49:53;20.78;;;12.01;;
61473;SDS011;53694;49.784;30.150;2023-03-03T02:50:54;21.71;;;12.28;;
61473;SDS011;53694;49.784;30.150;2023-03-03T02:51:56;23.02;;;12.14;;
61473;SDS011;53694;49.784;30.150;2023-03-03T02:52:59;22.70;;;12.36;;
61473;SDS011;53694;49.784;30.150;2023-03-03T02:54:00;23.31;;;12.22;;
61473;SDS011;53694;49.784;30.150;2023-03-03T02:55:02;22.46;;;12.17;;
61473;SDS011;53694;49.784;30.150;2023-03-03T02:56:05;23.01;;;12.05;;
61473;SDS011;53694;49.784;30.150;2023-03-03T02:57:07;23.06;;;12.84;;
61473;SDS011;53694;49.784;30.150;2023-03-03T02:58:09;25.01;;;13.46;;
61473;SDS011;53694;49.784;30.150;2023-03-03T02:59:11;24.61;;;13.77;;
61473;SDS011;53694;49.784;30.150;2023-03-03T03:00:13;23.26;;;12.66;;
61473;SDS011;53694;49.784;30.150;2023-03-03T03:01:15;22.40;;;13.29;;
61473;SDS011;53694;49.784;30.150;2023-03-03T03:02:17;24.28;;;12.68;;
61473;SDS011;53694;49.784;30.150;2023-03-03T03:03:18;19.84;;;11.11;;
61473;SDS011;53694;49.784;30.150;2023-03-03T03:04:21;20.34;;;10.61;;
61473;SDS011;53694;49.784;30.150;2023-03-03T03:05:24;18.45;;;10.01;;
61473;SDS011;53694;49.784;30.150;2023-03-03T03:06:25;18.40;;;10.61;;
61473;SDS011;53694;49.784;30.150;2023-03-03T03:07:27;18.34;;;9.55;;
61473;SDS011;53694;49.784;30.150;2023-03-03T03:08:28;20.32;;;9.81;;
61473;SDS011;53694;49.784;30.150;2023-03-03T03:09:30;17.08;;;10.32;;
61473;SDS011;53694;49.784;30.150;2023-03-03T03:10:32;20.06;;;10.87;;
61473;SDS011;53694;49.784;30.150;2023-03-03T03:11:33;19.09;;;10.97;;
61473;SDS011;53694;49.784;30.150;2023-03-03T03:12:35;24.38;;;11.88;;
61473;SDS011;53694;49.784;30.150;2023-03-03T03:13:37;21.73;;;12.54;;
61473;SDS011;53694;49.784;30.150;2023-03-03T03:14:38;22.19;;;12.54;;
61473;SDS011;53694;49.784;30.150;2023-03-03T03:15:40;21.23;;;12.84;;
61473;SDS011;53694;49.784;30.150;2023-03-03T03:16:42;24.65;;;12.69;;
61473;SDS011;53694;49.784;30.150;2023-03-03T03:17:43;23.81;;;12.89;;
61473;SDS011;53694;49.784;30.150;2023-03-03T03:18:45;22.39;;;13.64;;
61473;SDS011;53694;49.784;30.150;2023-03-03T03:19:46;22.92;;;13.41;;
61473;SDS011;53694;49.784;30.150;2023-03-03T03:20:48;24.26;;;13.34;;
61473;SDS011;53694;49.784;30.150;2023-03-03T03:21:49;26.52;;;14.02;;
61473;SDS011;53694;49.784;30.150;2023-03-03T03:22:51;25.23;;;13.87;;
61473;SDS011;53694;49.784;30.150;2023-03-03T03:23:53;24.07;;;13.37;;
61473;SDS011;53694;49.784;30.150;2023-03-03T03:24:54;23.71;;;13.97;;
61473;SDS011;53694;49.784;30.150;2023-03-03T03:25:56;24.30;;;13.73;;
61473;SDS011;53694;49.784;30.150;2023-03-03T03:26:57;26.91;;;14.79;;
61473;SDS011;53694;49.784;30.150;2023-03-03T03:27:59;21.76;;;12.70;;
61473;SDS011;53694;49.784;30.150;2023-03-03T03:29:00;21.86;;;11.85;;
61473;SDS011;53694;49.784;30.150;2023-03-03T03:30:02;20.49;;;11.15;;
61473;SDS011;53694;49.784;30.150;2023-03-03T03:31:05;17.49;;;10.61;;
61473;SDS011;53694;49.784;30.150;2023-03-03T03:32:08;17.09;;;9.81;;
61473;SDS011;53694;49.784;30.150;2023-03-03T03:33:10;19.14;;;10.44;;
61473;SDS011;53694;49.784;30.150;2023-03-03T03:34:11;19.97;;;10.02;;
61473;SDS011;53694;49.784;30.150;2023-03-03T03:35:13;19.24;;;11.46;;
61473;SDS011;53694;49.784;30.150;2023-03-03T03:36:15;26.59;;;12.38;;
61473;SDS011;53694;49.784;30.150;2023-03-03T03:37:17;22.91;;;12.41;;
61473;SDS011;53694;49.784;30.150;2023-03-03T03:38:19;23.24;;;11.61;;
61473;SDS011;53694;49.784;30.150;2023-03-03T03:39:20;22.81;;;12.39;;
61473;SDS011;53694;49.784;30.150;2023-03-03T03:40:22;22.31;;;12.88;;
61473;SDS011;53694;49.784;30.150;2023-03-03T03:41:23;24.51;;;12.63;;
61473;SDS011;53694;49.784;30.150;2023-03-03T03:42:25;24.81;;;13.58;;
61473;SDS011;53694;49.784;30.150;2023-03-03T03:43:26;24.31;;;13.61;;
61473;SDS011;53694;49.784;30.150;2023-03-03T03:44:28;25.27;;;13.37;;
61473;SDS011;53694;49.784;30.150;2023-03-03T03:45:29;29.22;;;14.34;;
61473;SDS011;53694;49.784;30.150;2023-03-03T03:46:31;25.88;;;14.80;;
61473;SDS011;53694;49.784;30.150;2023-03-03T03:47:33;27.89;;;15.22;;
61473;SDS011;53694;49.784;30.150;2023-03-03T03:48:34;25.91;;;14.82;;
61473;SDS011;53694;49.784;30.150;2023-03-03T03:49:36;28.01;;;15.69;;
61473;SDS011;53694;49.784;30.150;2023-03-03T03:50:38;27.26;;;15.43;;
61473;SDS011;53694;49.784;30.150;2023-03-03T03:51:39;30.51;;;16.65;;
61473;SDS011;53694;49.784;30.150;2023-03-03T03:52:41;30.83;;;15.76;;
61473;SDS011;53694;49.784;30.150;2023-03-03T03:53:43;26.85;;;14.11;;
61473;SDS011;53694;49.784;30.150;2023-03-03T03:54:44;20.81;;;12.69;;
61473;SDS011;53694;49.784;30.150;2023-03-03T03:55:46;25.51;;;12.74;;
61473;SDS011;53694;49.784;30.150;2023-03-03T03:56:47;20.96;;;11.83;;
61473;SDS011;53694;49.784;30.150;2023-03-03T03:57:49;22.20;;;11.96;;
61473;SDS011;53694;49.784;30.150;2023-03-03T03:58:50;26.06;;;12.70;;
61473;SDS011;53694;49.784;30.150;2023-03-03T03:59:52;25.01;;;11.92;;
61473;SDS011;53694;49.784;30.150;2023-03-03T04:00:54;23.01;;;12.28;;
61473;SDS011;53694;49.784;30.150;2023-03-03T04:01:55;25.41;;;13.95;;
61473;SDS011;53694;49.784;30.150;2023-03-03T04:02:57;27.01;;;13.61;;
61473;SDS011;53694;49.784;30.150;2023-03-03T04:03:59;26.94;;;14.10;;
61473;SDS011;53694;49.784;30.150;2023-03-03T04:05:00;27.90;;;15.38;;
61473;SDS011;53694;49.784;30.150;2023-03-03T04:06:02;28.21;;;15.53;;
61473;SDS011;53694;49.784;30.150;2023-03-03T04:07:03;28.38;;;16.04;;
61473;SDS011;53694;49.784;30.150;2023-03-03T04:08:05;26.53;;;14.81;;
61473;SDS011;53694;49.784;30.150;2023-03-03T04:09:07;33.23;;;16.75;;
61473;SDS011;53694;49.784;30.150;2023-03-03T04:10:09;26.38;;;15.73;;
61473;SDS011;53694;49.784;30.150;2023-03-03T04:11:11;27.52;;;15.64;;
61473;SDS011;53694;49.784;30.150;2023-03-03T04:12:13;30.14;;;16.06;;
61473;SDS011;53694;49.784;30.150;2023-03-03T04:13:14;29.62;;;16.66;;
61473;SDS011;53694;49.784;30.150;2023-03-03T04:14:16;30.25;;;17.23;;
61473;SDS011;53694;49.784;30.150;2023-03-03T04:15:18;28.93;;;15.41;;
61473;SDS011;53694;49.784;30.150;2023-03-03T04:16:19;34.24;;;17.74;;
61473;SDS011;53694;49.784;30.150;2023-03-03T04:17:21;30.13;;;15.54;;
61473;SDS011;53694;49.784;30.150;2023-03-03T04:18:23;25.51;;;13.81;;
61473;SDS011;53694;49.784;30.150;2023-03-03T04:19:25;23.81;;;13.09;;
61473;SDS011;53694;49.784;30.150;2023-03-03T04:20:26;25.31;;;13.91;;
61473;SDS011;53694;49.784;30.150;2023-03-03T04:21:28;24.69;;;13.37;;
61473;SDS011;53694;49.784;30.150;2023-03-03T04:22:30;22.79;;;12.33;;
61473;SDS011;53694;49.784;30.150;2023-03-03T04:23:31;22.87;;;13.34;;
61473;SDS011;53694;49.784;30.150;2023-03-03T04:24:33;27.38;;;13.39;;
61473;SDS011;53694;49.784;30.150;2023-03-03T04:25:34;24.07;;;14.25;;
61473;SDS011;53694;49.784;30.150;2023-03-03T04:26:36;28.26;;;15.16;;
61473;SDS011;53694;49.784;30.150;2023-03-03T04:27:37;26.35;;;14.79;;
61473;SDS011;53694;49.784;30.150;2023-03-03T04:28:39;28.30;;;15.49;;
61473;SDS011;53694;49.784;30.150;2023-03-03T04:29:40;26.96;;;15.21;;
61473;SDS011;53694;49.784;30.150;2023-03-03T04:30:42;27.91;;;15.71;;
61473;SDS011;53694;49.784;30.150;2023-03-03T04:31:44;29.59;;;16.65;;
61473;SDS011;53694;49.784;30.150;2023-03-03T04:32:45;29.09;;;16.65;;
61473;SDS011;53694;49.784;30.150;2023-03-03T04:33:47;25.39;;;16.18;;
61473;SDS011;53694;49.784;30.150;2023-03-03T04:34:49;30.62;;;17.48;;
61473;SDS011;53694;49.784;30.150;2023-03-03T04:35:50;35.76;;;18.86;;
61473;SDS011;53694;49.784;30.150;2023-03-03T04:36:52;34.04;;;18.31;;
61473;SDS011;53694;49.784;30.150;2023-03-03T04:37:53;33.06;;;18.20;;
61473;SDS011;53694;49.784;30.150;2023-03-03T04:38:55;31.77;;;16.41;;
61473;SDS011;53694;49.784;30.150;2023-03-03T04:39:56;29.52;;;15.00;;
61473;SDS011;53694;49.784;30.150;2023-03-03T04:40:58;23.22;;;13.39;;
61473;SDS011;53694;49.784;30.150;2023-03-03T04:41:59;23.85;;;13.34;;
61473;SDS011;53694;49.784;30.150;2023-03-03T04:43:01;28.80;;;14.74;;
61473;SDS011;53694;49.784;30.150;2023-03-03T04:44:02;26.56;;;13.88;;
61473;SDS011;53694;49.784;30.150;2023-03-03T04:45:04;23.18;;;13.11;;
61473;SDS011;53694;49.784;30.150;2023-03-03T04:46:07;25.70;;;13.15;;
61473;SDS011;53694;49.784;30.150;2023-03-03T04:47:08;22.79;;;13.11;;
61473;SDS011;53694;49.784;30.150;2023-03-03T04:48:10;34.21;;;18.76;;
61473;SDS011;53694;49.784;30.150;2023-03-03T04:49:11;28.64;;;15.75;;
61473;SDS011;53694;49.784;30.150;2023-03-03T04:50:13;37.71;;;19.15;;
61473;SDS011;53694;49.784;30.150;2023-03-03T04:51:15;25.62;;;14.92;;
61473;SDS011;53694;49.784;30.150;2023-03-03T04:52:16;30.63;;;17.11;;
61473;SDS011;53694;49.784;30.150;2023-03-03T04:53:18;32.38;;;16.43;;
61473;SDS011;53694;49.784;30.150;2023-03-03T04:54:19;31.55;;;17.60;;
61473;SDS011;53694;49.784;30.150;2023-03-03T04:55:21;31.40;;;18.28;;
61473;SDS011;53694;49.784;30.150;2023-03-03T04:56:23;34.17;;;17.77;;
61473;SDS011;53694;49.784;30.150;2023-03-03T04:57:25;32.20;;;18.16;;
61473;SDS011;53694;49.784;30.150;2023-03-03T04:58:26;30.82;;;18.39;;
61473;SDS011;53694;49.784;30.150;2023-03-03T04:59:28;31.07;;;17.73;;
61473;SDS011;53694;49.784;30.150;2023-03-03T05:00:30;32.69;;;17.35;;
61473;SDS011;53694;49.784;30.150;2023-03-03T05:01:32;37.81;;;18.53;;
61473;SDS011;53694;49.784;30.150;2023-03-03T05:02:33;34.85;;;18.11;;
61473;SDS011;53694;49.784;30.150;2023-03-03T05:03:35;31.39;;;15.93;;
61473;SDS011;53694;49.784;30.150;2023-03-03T05:04:36;31.89;;;15.45;;
61473;SDS011;53694;49.784;30.150;2023-03-03T05:05:39;30.71;;;14.61;;
61473;SDS011;53694;49.784;30.150;2023-03-03T05:06:41;26.91;;;13.63;;
61473;SDS011;53694;49.784;30.150;2023-03-03T05:07:42;24.91;;;14.39;;
61473;SDS011;53694;49.784;30.150;2023-03-03T05:08:44;28.23;;;14.03;;
61473;SDS011;53694;49.784;30.150;2023-03-03T05:09:46;27.46;;;14.21;;
61473;SDS011;53694;49.784;30.150;2023-03-03T05:10:52;25.13;;;14.61;;
61473;SDS011;53694;49.784;30.150;2023-03-03T05:11:54;29.87;;;14.41;;
61473;SDS011;53694;49.784;30.150;2023-03-03T05:12:56;28.46;;;14.79;;
61473;SDS011;53694;49.784;30.150;2023-03-03T05:13:58;29.46;;;15.97;;
61473;SDS011;53694;49.784;30.150;2023-03-03T05:14:59;34.70;;;16.90;;
61473;SDS011;53694;49.784;30.150;2023-03-03T05:16:01;34.39;;;16.23;;
61473;SDS011;53694;49.784;30.150;2023-03-03T05:17:03;29.96;;;16.96;;
61473;SDS011;53694;49.784;30.150;2023-03-03T05:18:04;33.85;;;17.85;;
61473;SDS011;53694;49.784;30.150;2023-03-03T05:19:06;34.36;;;18.02;;
61473;SDS011;53694;49.784;30.150;2023-03-03T05:20:12;33.58;;;18.63;;
61473;SDS011;53694;49.784;30.150;2023-03-03T05:21:13;33.66;;;17.81;;
61473;SDS011;53694;49.784;30.150;2023-03-03T05:22:14;34.28;;;18.21;;
61473;SDS011;53694;49.784;30.150;2023-03-03T05:23:16;33.39;;;18.10;;
61473;SDS011;53694;49.784;30.150;2023-03-03T05:24:19;33.53;;;18.07;;
61473;SDS011;53694;49.784;30.150;2023-03-03T05:25:20;31.21;;;16.39;;
61473;SDS011;53694;49.784;30.150;2023-03-03T05:26:22;26.36;;;15.01;;
61473;SDS011;53694;49.784;30.150;2023-03-03T05:27:23;29.39;;;14.66;;
61473;SDS011;53694;49.784;30.150;2023-03-03T05:28:25;27.54;;;14.57;;
61473;SDS011;53694;49.784;30.150;2023-03-03T05:29:26;26.34;;;14.30;;
61473;SDS011;53694;49.784;30.150;2023-03-03T05:30:28;26.54;;;14.80;;
61473;SDS011;53694;49.784;30.150;2023-03-03T05:31:30;29.45;;;14.36;;
61473;SDS011;53694;49.784;30.150;2023-03-03T05:32:31;26.67;;;13.77;;
61473;SDS011;53694;49.784;30.150;2023-03-03T05:33:34;25.16;;;14.21;;
61473;SDS011;53694;49.784;30.150;2023-03-03T05:34:36;32.30;;;15.37;;
61473;SDS011;53694;49.784;30.150;2023-03-03T05:35:37;28.91;;;15.79;;
61473;SDS011;53694;49.784;30.150;2023-03-03T05:36:39;31.95;;;16.75;;
61473;SDS011;53694;49.784;30.150;2023-03-03T05:37:41;28.86;;;16.76;;
61473;SDS011;53694;49.784;30.150;2023-03-03T05:38:42;32.94;;;16.79;;
61473;SDS011;53694;49.784;30.150;2023-03-03T05:39:44;31.82;;;16.51;;
61473;SDS011;53694;49.784;30.150;2023-03-03T05:40:46;30.61;;;17.39;;
61473;SDS011;53694;49.784;30.150;2023-03-03T05:41:47;34.83;;;18.53;;
61473;SDS011;53694;49.784;30.150;2023-03-03T05:42:49;37.94;;;19.17;;
61473;SDS011;53694;49.784;30.150;2023-03-03T05:43:51;35.09;;;19.11;;
61473;SDS011;53694;49.784;30.150;2023-03-03T05:44:52;31.72;;;18.84;;
61473;SDS011;53694;49.784;30.150;2023-03-03T05:45:57;33.84;;;18.32;;
61473;SDS011;53694;49.784;30.150;2023-03-03T05:46:59;36.43;;;19.54;;
61473;SDS011;53694;49.784;30.150;2023-03-03T05:48:00;35.29;;;18.31;;
61473;SDS011;53694;49.784;30.150;2023-03-03T05:49:02;36.48;;;19.93;;
61473;SDS011;53694;49.784;30.150;2023-03-03T05:50:04;40.86;;;18.75;;
61473;SDS011;53694;49.784;30.150;2023-03-03T05:51:08;29.39;;;15.42;;
61473;SDS011;53694;49.784;30.150;2023-03-03T05:52:09;28.59;;;14.93;;
61473;SDS011;53694;49.784;30.150;2023-03-03T05:53:11;27.83;;;14.51;;
61473;SDS011;53694;49.784;30.150;2023-03-03T05:54:12;27.06;;;14.32;;
61473;SDS011;53694;49.784;30.150;2023-03-03T05:55:14;24.59;;;13.28;;
61473;SDS011;53694;49.784;30.150;2023-03-03T05:56:16;21.67;;;12.75;;
61473;SDS011;53694;49.784;30.150;2023-03-03T05:57:18;24.83;;;13.40;;
61473;SDS011;53694;49.784;30.150;2023-03-03T05:58:19;24.52;;;14.21;;
61473;SDS011;53694;49.784;30.150;2023-03-03T05:59:22;27.00;;;14.83;;
61473;SDS011;53694;49.784;30.150;2023-03-03T06:00:24;28.32;;;16.12;;
61473;SDS011;53694;49.784;30.150;2023-03-03T06:01:26;32.25;;;16.71;;
61473;SDS011;53694;49.784;30.150;2023-03-03T06:02:28;24.89;;;15.45;;
61473;SDS011;53694;49.784;30.150;2023-03-03T06:03:29;34.41;;;17.21;;
61473;SDS011;53694;49.784;30.150;2023-03-03T06:04:31;33.00;;;17.59;;
61473;SDS011;53694;49.784;30.150;2023-03-03T06:05:32;30.43;;;17.96;;
61473;SDS011;53694;49.784;30.150;2023-03-03T06:06:34;32.85;;;17.62;;
61473;SDS011;53694;49.784;30.150;2023-03-03T06:07:36;36.83;;;18.34;;
61473;SDS011;53694;49.784;30.150;2023-03-03T06:08:37;35.73;;;19.34;;
61473;SDS011;53694;49.784;30.150;2023-03-03T06:09:39;34.58;;;19.49;;
61473;SDS011;53694;49.784;30.150;2023-03-03T06:10:41;33.30;;;19.27;;
61473;SDS011;53694;49.784;30.150;2023-03-03T06:11:42;32.14;;;19.39;;